createdAt,value
2019-01-16T00:00:20.029Z,0
2019-01-16T00:03:28.884Z,0
2019-01-16T00:06:34.814Z,0
2019-01-16T00:09:40.880Z,0
2019-01-16T00:12:46.841Z,0
2019-01-16T00:15:52.795Z,0
2019-01-16T00:18:58.701Z,0
2019-01-16T00:22:04.609Z,0
2019-01-16T00:25:10.589Z,0
2019-01-16T00:28:16.528Z,0
2019-01-16T00:31:22.399Z,0
2019-01-16T00:34:28.346Z,0
2019-01-16T00:37:34.212Z,0
2019-01-16T00:40:40.158Z,0
2019-01-16T00:43:46.035Z,0
2019-01-16T00:46:52.079Z,0
2019-01-16T00:49:57.948Z,0
2019-01-16T00:53:03.999Z,0
2019-01-16T00:56:10.060Z,0
2019-01-16T00:59:16.132Z,0
2019-01-16T01:02:22.084Z,0
2019-01-16T01:05:28.047Z,0
2019-01-16T01:08:34.218Z,0
2019-01-16T01:11:40.151Z,0
2019-01-16T01:14:46.437Z,0
2019-01-16T01:17:52.491Z,0
2019-01-16T01:20:58.454Z,0
2019-01-16T01:24:07.060Z,0
2019-01-16T01:27:13.032Z,0
2019-01-16T01:30:18.990Z,0
2019-01-16T01:33:24.934Z,0
2019-01-16T01:36:30.915Z,0
2019-01-16T01:39:36.852Z,0
2019-01-16T01:42:42.786Z,0
2019-01-16T01:45:48.656Z,0
2019-01-16T01:48:54.758Z,0
2019-01-16T01:52:00.921Z,0
2019-01-16T01:55:06.792Z,0
2019-01-16T01:58:12.833Z,0
2019-01-16T02:01:18.730Z,0
2019-01-16T02:04:24.648Z,0
2019-01-16T02:07:30.573Z,0
2019-01-16T02:10:36.565Z,0
2019-01-16T02:13:42.523Z,0
2019-01-16T02:16:48.400Z,0
2019-01-16T02:19:54.546Z,0
2019-01-16T02:23:00.522Z,0
2019-01-16T02:26:06.450Z,0
2019-01-16T02:29:12.425Z,0
2019-01-16T02:32:18.569Z,0
2019-01-16T02:35:24.445Z,0
2019-01-16T02:38:30.419Z,0
2019-01-16T02:41:36.377Z,0
2019-01-16T02:44:45.409Z,0
2019-01-16T02:47:51.372Z,0
2019-01-16T02:50:57.323Z,0
2019-01-16T02:54:03.236Z,0
2019-01-16T02:57:09.239Z,0
2019-01-16T03:00:15.110Z,0
2019-01-16T03:03:21.056Z,0
2019-01-16T03:06:27.113Z,0
2019-01-16T03:09:33.052Z,0
2019-01-16T03:12:39.233Z,0
2019-01-16T03:15:45.101Z,0
2019-01-16T03:18:51.154Z,0
2019-01-16T03:21:57.023Z,0
2019-01-16T03:25:03.391Z,0
2019-01-16T03:28:09.655Z,0
2019-01-16T03:31:15.721Z,0
2019-01-16T03:34:21.673Z,0
2019-01-16T03:37:27.605Z,0
2019-01-16T03:40:33.585Z,0
2019-01-16T03:43:39.644Z,0
2019-01-16T03:46:45.716Z,0
2019-01-16T03:49:51.588Z,0
2019-01-16T03:52:57.639Z,0
2019-01-16T03:56:03.501Z,0
2019-01-16T03:59:09.552Z,0
2019-01-16T04:02:15.413Z,0
2019-01-16T04:05:21.464Z,128.9
2019-01-16T04:08:27.336Z,233.3
2019-01-16T04:11:33.331Z,256.3
2019-01-16T04:14:39.345Z,259.2
2019-01-16T04:17:45.307Z,262.1
2019-01-16T04:20:51.268Z,262.1
2019-01-16T04:23:57.152Z,263.5
2019-01-16T04:27:03.178Z,266.4
2019-01-16T04:30:09.246Z,266.4
2019-01-16T04:33:15.419Z,265
2019-01-16T04:36:21.465Z,265
2019-01-16T04:39:27.442Z,265
2019-01-16T04:42:33.408Z,265
2019-01-16T04:45:39.400Z,265
2019-01-16T04:48:45.411Z,265
2019-01-16T04:51:51.585Z,265
2019-01-16T04:54:57.532Z,263.5
2019-01-16T04:58:03.493Z,265
2019-01-16T05:01:09.458Z,265
2019-01-16T05:04:15.452Z,263.5
2019-01-16T05:07:21.588Z,263.5
2019-01-16T05:10:30.292Z,263.5
2019-01-16T05:13:39.015Z,263.5
2019-01-16T05:16:44.890Z,266.4
2019-01-16T05:19:50.938Z,266.4
2019-01-16T05:22:56.847Z,265
2019-01-16T05:26:02.808Z,266.4
2019-01-16T05:29:08.679Z,265
2019-01-16T05:32:14.681Z,266.4
2019-01-16T05:35:20.734Z,266.4
2019-01-16T05:38:26.608Z,266.4
2019-01-16T05:41:32.660Z,133.2
2019-01-16T05:44:38.714Z,266.4
2019-01-16T05:47:44.680Z,263.5
2019-01-16T05:50:50.552Z,262.1
2019-01-16T05:53:56.493Z,262.1
2019-01-16T05:57:02.460Z,262.1
2019-01-16T06:00:08.419Z,263.5
2019-01-16T06:03:14.372Z,265
2019-01-16T06:06:20.334Z,263.5
2019-01-16T06:09:26.489Z,269.3
2019-01-16T06:12:32.359Z,257.8
2019-01-16T06:15:41.063Z,270.7
2019-01-16T06:18:46.938Z,273.6
2019-01-16T06:21:52.846Z,272.2
2019-01-16T06:24:58.718Z,262.1
2019-01-16T06:28:04.691Z,272.2
2019-01-16T06:31:10.778Z,275
2019-01-16T06:34:16.839Z,273.6
2019-01-16T06:37:22.712Z,276.5
2019-01-16T06:40:28.646Z,279.4
2019-01-16T06:43:34.543Z,289.4
2019-01-16T06:46:40.575Z,289.4
2019-01-16T06:49:46.619Z,277.9
2019-01-16T06:52:52.813Z,279.4
2019-01-16T06:55:58.875Z,279.4
2019-01-16T06:59:04.805Z,280.8
2019-01-16T07:02:10.782Z,276.5
2019-01-16T07:05:16.906Z,275
2019-01-16T07:08:24.094Z,282.2
2019-01-16T07:11:30.194Z,279.4
2019-01-16T07:14:36.259Z,277.9
2019-01-16T07:17:42.147Z,276.5
2019-01-16T07:20:48.079Z,275
2019-01-16T07:23:55.244Z,282.2
2019-01-16T07:27:01.232Z,288
2019-01-16T07:30:07.286Z,292.3
2019-01-16T07:33:13.214Z,290.9
2019-01-16T07:36:19.308Z,288
2019-01-16T07:39:25.275Z,286.6
2019-01-16T07:42:31.344Z,288
2019-01-16T07:45:37.613Z,288
2019-01-16T07:48:43.497Z,286.6
2019-01-16T07:51:49.889Z,285.1
2019-01-16T07:54:55.888Z,283.7
2019-01-16T07:58:01.945Z,283.7
2019-01-16T08:01:06.139Z,282.2
2019-01-16T08:04:13.246Z,282.2
2019-01-16T08:07:19.357Z,280.8
2019-01-16T08:10:25.370Z,280.8
2019-01-16T08:13:31.435Z,279.4
2019-01-16T08:16:37.691Z,279.4
2019-01-16T08:19:44.279Z,279.4
2019-01-16T08:22:50.227Z,279.4
2019-01-16T08:25:58.427Z,279.4
2019-01-16T08:29:04.410Z,277.9
2019-01-16T08:32:10.440Z,277.9
2019-01-16T08:35:17.564Z,272.2
2019-01-16T08:38:23.971Z,280.8
2019-01-16T08:41:30.590Z,280.8
2019-01-16T08:44:38.174Z,280.8
2019-01-16T08:47:44.774Z,280.8
2019-01-16T08:50:50.924Z,280.8
2019-01-16T08:53:56.838Z,282.2
2019-01-16T08:57:03.308Z,280.8
2019-01-16T09:00:09.507Z,282.2
2019-01-16T09:03:15.486Z,282.2
2019-01-16T09:06:21.631Z,283.7
2019-01-16T09:09:27.907Z,285.1
2019-01-16T09:12:35.098Z,286.6
2019-01-16T09:15:45.271Z,286.6
2019-01-16T09:18:51.624Z,285.1
2019-01-16T09:21:57.922Z,282.2
2019-01-16T09:25:03.970Z,280.8
2019-01-16T09:28:09.847Z,282.2
2019-01-16T09:31:15.983Z,282.2
2019-01-16T09:34:22.230Z,285.1
2019-01-16T09:37:28.109Z,283.7
2019-01-16T09:40:34.177Z,282.2
2019-01-16T09:43:40.907Z,285.1
2019-01-16T09:46:48.396Z,292.3
2019-01-16T09:49:54.713Z,292.3
2019-01-16T09:53:00.769Z,292.3
2019-01-16T09:56:06.784Z,290.9
2019-01-16T09:59:12.808Z,290.9
2019-01-16T10:02:19.142Z,293.8
2019-01-16T10:05:26.164Z,296.6
2019-01-16T10:08:32.216Z,295.2
2019-01-16T10:11:39.702Z,293.8
2019-01-16T10:14:45.664Z,290.9
2019-01-16T10:17:51.734Z,290.9
2019-01-16T10:20:59.029Z,290.9
2019-01-16T10:24:05.290Z,292.3
2019-01-16T10:27:11.438Z,290.9
2019-01-16T10:30:17.309Z,293.8
2019-01-16T10:33:23.420Z,296.6
2019-01-16T10:36:29.336Z,296.6
2019-01-16T10:39:35.299Z,296.6
2019-01-16T10:42:41.167Z,295.2
2019-01-16T10:45:47.204Z,295.2
2019-01-16T10:48:53.177Z,295.2
2019-01-16T10:51:59.260Z,292.3
2019-01-16T10:55:05.269Z,288
2019-01-16T10:58:11.364Z,289.4
2019-01-16T11:01:17.543Z,289.4
2019-01-16T11:04:23.667Z,290.9
2019-01-16T11:07:29.655Z,292.3
2019-01-16T11:10:35.549Z,290.9
2019-01-16T11:13:41.565Z,286.6
2019-01-16T11:16:47.615Z,288
2019-01-16T11:20:01.459Z,292.3
2019-01-16T11:23:07.527Z,290.9
2019-01-16T11:26:14.716Z,285.1
2019-01-16T11:29:23.554Z,288
2019-01-16T11:32:29.723Z,286.6
2019-01-16T11:35:38.589Z,289.4
2019-01-16T11:38:44.517Z,290.9
2019-01-16T11:41:50.613Z,289.4
2019-01-16T11:44:56.613Z,290.9
2019-01-16T11:48:02.552Z,241.9
2019-01-16T11:51:19.782Z,283.7
2019-01-16T11:54:25.688Z,290.9
2019-01-16T11:57:31.682Z,283.7
2019-01-16T12:00:38.815Z,282.2
2019-01-16T12:03:45.868Z,286.6
2019-01-16T12:06:53.903Z,253.4
2019-01-16T12:09:59.854Z,289.4
2019-01-16T12:13:05.913Z,288
2019-01-16T12:16:12.075Z,289.4
2019-01-16T12:19:19.177Z,288
2019-01-16T12:22:25.286Z,288
2019-01-16T12:25:31.184Z,285.1
2019-01-16T12:28:39.345Z,285.1
2019-01-16T12:31:45.339Z,285.1
2019-01-16T12:34:52.663Z,283.7
2019-01-16T12:37:58.820Z,285.1
2019-01-16T12:41:04.875Z,283.7
2019-01-16T12:44:11.175Z,283.7
2019-01-16T12:47:18.089Z,282.2
2019-01-16T12:50:24.149Z,282.2
2019-01-16T12:53:30.679Z,280.8
2019-01-16T12:56:36.736Z,277.9
2019-01-16T12:59:45.598Z,282.2
2019-01-16T13:02:51.510Z,280.8
2019-01-16T13:05:57.382Z,277.9
2019-01-16T13:09:03.627Z,277.9
2019-01-16T13:12:11.778Z,279.4
2019-01-16T13:15:17.717Z,280.8
2019-01-16T13:18:23.665Z,277.9
2019-01-16T13:21:29.582Z,279.4
2019-01-16T13:24:35.447Z,272.2
2019-01-16T13:27:41.648Z,272.2
2019-01-16T13:30:47.570Z,270.7
2019-01-16T13:33:53.684Z,272.2
2019-01-16T13:36:59.727Z,276.5
2019-01-16T13:40:07.015Z,275
2019-01-16T13:43:13.073Z,272.2
2019-01-16T13:46:19.086Z,269.3
2019-01-16T13:49:26.169Z,272.2
2019-01-16T13:52:32.061Z,272.2
2019-01-16T13:55:38.405Z,272.2
2019-01-16T13:58:45.889Z,270.7
2019-01-16T14:01:52.813Z,267.8
2019-01-16T14:05:01.665Z,270.7
2019-01-16T14:08:08.825Z,270.7
2019-01-16T14:11:15.018Z,270.7
2019-01-16T14:14:21.067Z,270.7
2019-01-16T14:17:27.217Z,244.8
2019-01-16T14:20:33.198Z,267.8
2019-01-16T14:23:39.150Z,269.3
2019-01-16T14:26:45.355Z,265
2019-01-16T14:29:51.332Z,266.4
2019-01-16T14:32:57.444Z,265
2019-01-16T14:36:03.969Z,265
2019-01-16T14:39:09.890Z,266.4
2019-01-16T14:42:15.941Z,263.5
2019-01-16T14:45:21.991Z,213.1
2019-01-16T14:48:27.958Z,265
2019-01-16T14:51:33.889Z,265
2019-01-16T14:54:39.933Z,263.5
2019-01-16T14:57:45.845Z,263.5
2019-01-16T15:00:51.898Z,265
2019-01-16T15:03:57.833Z,265
2019-01-16T15:07:03.820Z,263.5
2019-01-16T15:10:09.978Z,263.5
2019-01-16T15:13:16.158Z,263.5
2019-01-16T15:16:22.114Z,263.5
2019-01-16T15:19:28.173Z,263.5
2019-01-16T15:22:37.108Z,263.5
2019-01-16T15:25:43.275Z,263.5
2019-01-16T15:28:49.146Z,262.1
2019-01-16T15:31:55.190Z,263.5
2019-01-16T15:35:01.249Z,262.1
2019-01-16T15:38:07.415Z,262.1
2019-01-16T15:41:13.358Z,262.1
2019-01-16T15:44:19.338Z,262.1
2019-01-16T15:47:26.410Z,260.6
2019-01-16T15:50:33.405Z,262.1
2019-01-16T15:53:39.762Z,262.1
2019-01-16T15:56:45.633Z,263.5
2019-01-16T15:59:51.588Z,265
2019-01-16T16:02:57.534Z,266.4
2019-01-16T16:06:03.407Z,263.5
2019-01-16T16:09:10.868Z,265
2019-01-16T16:12:17.048Z,265
2019-01-16T16:15:22.973Z,266.4
2019-01-16T16:18:29.073Z,266.4
2019-01-16T16:21:36.163Z,263.5
2019-01-16T16:24:42.119Z,263.5
2019-01-16T16:27:48.078Z,263.5
2019-01-16T16:30:55.335Z,263.5
2019-01-16T16:34:01.331Z,203
2019-01-16T16:37:07.390Z,265
2019-01-16T16:40:13.262Z,262.1
2019-01-16T16:43:19.318Z,263.5
2019-01-16T16:46:25.575Z,167.8
2019-01-16T16:49:31.549Z,266.4
2019-01-16T16:52:37.459Z,266.4
2019-01-16T16:55:43.458Z,266.4
2019-01-16T16:58:55.646Z,266.4
2019-01-16T17:02:03.219Z,267.8
2019-01-16T17:05:09.306Z,267.8
2019-01-16T17:08:15.277Z,267.8
2019-01-16T17:11:21.245Z,267.8
2019-01-16T17:14:27.197Z,266.4
2019-01-16T17:17:33.077Z,267.8
2019-01-16T17:20:39.012Z,267.8
2019-01-16T17:23:44.985Z,267.8
2019-01-16T17:26:50.937Z,267.8
2019-01-16T17:29:59.783Z,267.8
2019-01-16T17:33:05.729Z,267.8
2019-01-16T17:36:11.906Z,269.3
2019-01-16T17:39:18.982Z,267.8
2019-01-16T17:42:25.038Z,266.4
2019-01-16T17:45:31.296Z,267.8
2019-01-16T17:48:37.211Z,269.3
2019-01-16T17:51:43.218Z,269.3
2019-01-16T17:54:49.181Z,269.3
2019-01-16T17:57:55.468Z,269.3
2019-01-16T18:01:01.401Z,269.3
2019-01-16T18:04:07.468Z,267.8
2019-01-16T18:07:13.700Z,269.3
2019-01-16T18:10:19.816Z,269.3
2019-01-16T18:13:25.817Z,270.7
2019-01-16T18:16:31.820Z,270.7
2019-01-16T18:19:37.880Z,270.7
2019-01-16T18:22:48.274Z,269.3
2019-01-16T18:25:54.388Z,270.7
2019-01-16T18:29:00.944Z,270.7
2019-01-16T18:32:06.812Z,269.3
2019-01-16T18:35:12.826Z,269.3
2019-01-16T18:38:18.964Z,270.7
2019-01-16T18:41:24.925Z,270.7
2019-01-16T18:44:30.990Z,270.7
2019-01-16T18:47:36.898Z,269.3
2019-01-16T18:50:42.901Z,270.7
2019-01-16T18:53:48.773Z,270.7
2019-01-16T18:56:54.718Z,270.7
2019-01-16T19:00:00.589Z,270.7
2019-01-16T19:03:06.637Z,270.7
2019-01-16T19:06:12.599Z,270.7
2019-01-16T19:09:18.469Z,270.7
2019-01-16T19:12:24.419Z,2.7
2019-01-16T19:15:30.395Z,2.7
2019-01-16T19:18:36.306Z,2.7
2019-01-16T19:21:42.293Z,2.7
2019-01-16T19:24:48.164Z,2.7
2019-01-16T19:27:54.136Z,2.7
2019-01-16T19:31:00.024Z,2.7
2019-01-16T19:34:08.808Z,2.7
2019-01-16T19:37:14.808Z,2.7
2019-01-16T19:40:20.827Z,2.7
2019-01-16T19:43:26.761Z,2.7
2019-01-16T19:46:32.744Z,2.7
2019-01-16T19:49:38.811Z,2.7
2019-01-16T19:52:44.771Z,2.7
2019-01-16T19:55:50.695Z,2.7
2019-01-16T19:58:56.579Z,2.7
2019-01-16T20:02:02.533Z,2.7
2019-01-16T20:05:08.411Z,2.7
2019-01-16T20:08:14.349Z,2.7
2019-01-16T20:11:20.309Z,2.7
2019-01-16T20:14:32.526Z,2.7
2019-01-16T20:17:38.393Z,2.7
2019-01-16T20:20:44.338Z,2.7
2019-01-16T20:23:50.395Z,2.7
2019-01-16T20:26:56.277Z,2.7
2019-01-16T20:30:05.079Z,2.7
2019-01-16T20:33:11.037Z,2.7
2019-01-16T20:36:17.001Z,2.7
2019-01-16T20:39:22.957Z,2.7
2019-01-16T20:42:28.916Z,2.7
2019-01-16T20:45:34.825Z,2.7
2019-01-16T20:48:40.887Z,2.7
2019-01-16T20:51:46.802Z,2.7
2019-01-16T20:54:52.665Z,2.7
2019-01-16T20:57:58.760Z,2.7
2019-01-16T21:01:04.682Z,2.7
2019-01-16T21:04:10.743Z,2.7
2019-01-16T21:07:16.618Z,2.7
2019-01-16T21:10:22.644Z,2.7
2019-01-16T21:13:28.512Z,2.7
2019-01-16T21:16:34.476Z,2.7
2019-01-16T21:19:40.436Z,2.7
2019-01-16T21:22:46.415Z,2.7
2019-01-16T21:25:52.341Z,2.7
2019-01-16T21:28:58.321Z,2.7
2019-01-16T21:32:04.181Z,2.7
2019-01-16T21:35:10.137Z,2.7
2019-01-16T21:38:16.199Z,2.7
2019-01-16T21:41:22.159Z,2.7
2019-01-16T21:44:28.018Z,2.7
2019-01-16T21:47:39.605Z,224.6
2019-01-16T21:50:45.563Z,0
2019-01-16T21:53:52.557Z,0
2019-01-16T21:56:58.480Z,0
2019-01-16T22:00:04.483Z,0
2019-01-16T22:03:10.342Z,0
2019-01-16T22:06:16.403Z,0
2019-01-16T22:09:22.273Z,0
2019-01-16T22:12:28.202Z,0
2019-01-16T22:15:34.174Z,0
2019-01-16T22:18:40.146Z,0
2019-01-16T22:21:46.101Z,0
2019-01-16T22:24:51.951Z,0
2019-01-16T22:27:57.841Z,0
2019-01-16T22:31:03.869Z,0
2019-01-16T22:34:09.831Z,0
2019-01-16T22:37:15.697Z,0
2019-01-16T22:40:21.646Z,0
2019-01-16T22:43:30.463Z,0
2019-01-16T22:46:36.334Z,0
2019-01-16T22:49:42.271Z,0
2019-01-16T22:52:48.148Z,0
2019-01-16T22:55:54.109Z,0
2019-01-16T22:59:00.168Z,0
2019-01-16T23:02:06.333Z,0
2019-01-16T23:05:12.190Z,0
2019-01-16T23:08:18.138Z,0
2019-01-16T23:11:24.089Z,0
2019-01-16T23:14:30.152Z,0
2019-01-16T23:17:36.111Z,0
2019-01-16T23:20:42.071Z,0
2019-01-16T23:23:52.843Z,0
2019-01-16T23:26:58.908Z,0
2019-01-16T23:30:04.869Z,0
2019-01-16T23:33:10.929Z,0
2019-01-16T23:36:16.887Z,0
2019-01-16T23:39:22.760Z,0
2019-01-16T23:42:28.703Z,0
2019-01-16T23:45:34.579Z,0
2019-01-16T23:48:40.638Z,0
2019-01-16T23:51:46.603Z,0
2019-01-16T23:54:52.462Z,0
2019-01-16T23:57:58.404Z,0
